Time;durP1;ratioP1;P1;durP2;ratioP2;P2;SDS_P1;SDS_P2;PMS_P1;PMS_P2;Temp;Humidity;BMP_temperature;BMP_pressure;BME280_temperature;BME280_humidity;BME280_pressure;Samples;Min_cycle;Max_cycle;Signal;HPM_P1;HPM_P2
2021/04/24 00:00:51;;;;;;;28.88;10.98;;;2.00;99.90;;;;;;5045676;28;20117;-63
2021/04/24 00:03:17;;;;;;;22.77;10.02;;;2.00;99.90;;;;;;5045727;28;20051;-63
2021/04/24 00:05:44;;;;;;;20.17;9.88;;;2.00;99.90;;;;;;5046121;28;20029;-61
2021/04/24 00:08:11;;;;;;;20.13;9.82;;;2.00;99.90;;;;;;5049221;28;20044;-61
2021/04/24 00:10:39;;;;;;;25.38;10.63;;;2.00;99.90;;;;;;5050006;28;20040;-61
2021/04/24 00:13:07;;;;;;;20.27;9.40;;;1.90;99.90;;;;;;5057420;28;20120;-61
2021/04/24 00:15:33;;;;;;;19.08;9.40;;;1.90;99.90;;;;;;5065984;28;20382;-60
2021/04/24 00:17:59;;;;;;;25.75;10.27;;;1.90;99.90;;;;;;5070066;28;20064;-60
2021/04/24 00:20:25;;;;;;;18.77;9.98;;;1.80;99.90;;;;;;5054912;28;20084;-63
2021/04/24 00:22:51;;;;;;;20.33;9.35;;;1.90;99.90;;;;;;5047836;28;20060;-62
2021/04/24 00:25:17;;;;;;;19.88;9.65;;;1.80;99.90;;;;;;5049321;28;20127;-58
2021/04/24 00:27:43;;;;;;;27.10;10.02;;;1.90;99.90;;;;;;5049876;28;20124;-64
2021/04/24 00:30:12;;;;;;;21.65;10.57;;;1.80;99.90;;;;;;5048131;28;20041;-62
2021/04/24 00:32:39;;;;;;;17.50;9.48;;;1.80;99.90;;;;;;5049283;28;20704;-60
2021/04/24 00:35:06;;;;;;;23.33;10.02;;;1.80;99.90;;;;;;5048523;28;20045;-61
2021/04/24 00:37:32;;;;;;;26.38;10.35;;;1.80;99.90;;;;;;5048990;28;20759;-60
2021/04/24 00:39:57;;;;;;;23.88;10.25;;;1.70;99.90;;;;;;5049611;28;20041;-63
2021/04/24 00:42:23;;;;;;;23.63;9.82;;;1.60;99.90;;;;;;5056262;28;20408;-60
2021/04/24 00:44:50;;;;;;;22.00;9.82;;;1.60;99.90;;;;;;5060492;28;20043;-62
2021/04/24 00:47:20;;;;;;;24.42;10.00;;;1.60;99.90;;;;;;5069350;28;20702;-62
2021/04/24 00:49:46;;;;;;;20.08;8.65;;;1.60;99.90;;;;;;5057692;28;20041;-64
2021/04/24 00:52:14;;;;;;;19.33;8.65;;;1.60;99.90;;;;;;5049646;28;20386;-60
2021/04/24 00:54:40;;;;;;;17.23;9.13;;;1.60;99.90;;;;;;5049011;28;20146;-62
2021/04/24 00:57:07;;;;;;;20.17;9.40;;;1.60;99.90;;;;;;5049482;28;20072;-61
2021/04/24 00:59:35;;;;;;;21.95;9.35;;;1.60;99.90;;;;;;5049295;28;20548;-59
2021/04/24 01:02:02;;;;;;;24.48;10.27;;;1.50;99.90;;;;;;5047210;28;20523;-58
2021/04/24 01:04:28;;;;;;;24.50;10.30;;;1.50;99.90;;;;;;5049030;28;20598;-60
2021/04/24 01:06:54;;;;;;;24.20;9.13;;;1.50;99.90;;;;;;5048730;28;20083;-55
2021/04/24 01:09:19;;;;;;;23.85;10.05;;;1.50;99.90;;;;;;5049433;28;20040;-58
2021/04/24 01:11:45;;;;;;;23.25;9.93;;;1.40;99.90;;;;;;5049595;28;20094;-61
2021/04/24 01:14:11;;;;;;;19.55;9.38;;;1.50;99.90;;;;;;5060672;28;20143;-63
2021/04/24 01:16:37;;;;;;;22.40;9.90;;;1.50;99.90;;;;;;5068514;28;20055;-61
2021/04/24 01:19:03;;;;;;;22.17;9.15;;;1.50;99.90;;;;;;5068556;28;20043;-64
2021/04/24 01:21:29;;;;;;;22.85;10.40;;;1.40;99.90;;;;;;5068677;28;20052;-56
2021/04/24 01:23:55;;;;;;;19.20;9.70;;;1.30;99.90;;;;;;5069103;28;20171;-61
2021/04/24 01:26:21;;;;;;;22.33;9.45;;;1.30;99.90;;;;;;5068451;28;20036;-59
2021/04/24 01:28:47;;;;;;;20.17;9.82;;;1.30;99.90;;;;;;5068427;28;20036;-64
2021/04/24 01:31:16;;;;;;;23.38;10.27;;;1.30;99.90;;;;;;5068259;28;20094;-62
2021/04/24 01:33:42;;;;;;;21.40;8.68;;;1.20;99.90;;;;;;5068943;28;20139;-56
2021/04/24 01:36:08;;;;;;;20.38;9.10;;;1.20;99.90;;;;;;5068200;28;20408;-62
2021/04/24 01:38:34;;;;;;;16.75;8.65;;;1.20;99.90;;;;;;5050437;28;20044;-59
2021/04/24 01:41:00;;;;;;;29.55;10.35;;;1.10;99.90;;;;;;5068212;28;20036;-59
2021/04/24 01:43:26;;;;;;;25.20;10.60;;;1.00;99.90;;;;;;5056271;28;20041;-60
2021/04/24 01:45:52;;;;;;;19.35;8.98;;;1.00;99.90;;;;;;5066297;28;20493;-56
2021/04/24 01:48:18;;;;;;;22.60;9.40;;;1.00;99.90;;;;;;5050436;28;20040;-61
2021/04/24 01:50:46;;;;;;;19.08;9.02;;;1.00;99.90;;;;;;5048762;28;20041;-58
2021/04/24 01:53:17;;;;;;;31.05;10.13;;;1.00;99.90;;;;;;5046578;28;20071;-63
2021/04/24 01:55:43;;;;;;;24.27;10.38;;;0.90;99.90;;;;;;5048325;28;20098;-57
2021/04/24 01:58:11;;;;;;;27.15;10.50;;;0.90;99.90;;;;;;5048777;28;20051;-58
2021/04/24 02:00:41;;;;;;;24.42;10.55;;;0.90;99.90;;;;;;5046969;28;20037;-60
2021/04/24 02:03:11;;;;;;;23.55;10.80;;;0.90;99.90;;;;;;5048376;28;20719;-55
2021/04/24 02:05:37;;;;;;;19.63;9.13;;;0.90;99.90;;;;;;5048239;28;20056;-57
2021/04/24 02:08:07;;;;;;;22.23;9.85;;;0.90;99.90;;;;;;5047246;28;20386;-59
2021/04/24 02:10:33;;;;;;;22.75;9.73;;;0.90;99.90;;;;;;5047674;28;20124;-62
2021/04/24 02:13:02;;;;;;;26.42;11.18;;;0.90;99.90;;;;;;5055695;28;20094;-58
2021/04/24 02:15:28;;;;;;;20.65;9.50;;;0.90;99.90;;;;;;5063074;28;20040;-60
2021/04/24 02:17:54;;;;;;;21.15;9.75;;;0.90;99.90;;;;;;5049625;28;20036;-58
2021/04/24 02:20:19;;;;;;;23.00;10.65;;;0.90;99.90;;;;;;5067453;28;20532;-55
2021/04/24 02:22:45;;;;;;;30.98;10.32;;;0.90;99.90;;;;;;5067515;28;20036;-59
2021/04/24 02:25:15;;;;;;;20.42;10.20;;;0.90;99.90;;;;;;5067117;28;20372;-61
2021/04/24 02:27:41;;;;;;;24.38;9.57;;;0.90;99.90;;;;;;5067339;28;20037;-58
2021/04/24 02:30:11;;;;;;;21.95;9.90;;;0.90;99.90;;;;;;5040355;28;20078;-61
2021/04/24 02:32:38;;;;;;;25.73;9.90;;;0.90;99.90;;;;;;5047124;28;20048;-64
2021/04/24 02:35:05;;;;;;;26.30;10.68;;;0.90;99.90;;;;;;5047328;28;20123;-61
2021/04/24 02:37:32;;;;;;;19.42;9.80;;;0.80;99.90;;;;;;5047797;28;20207;-62
2021/04/24 02:39:58;;;;;;;19.95;10.18;;;0.90;99.90;;;;;;5047856;28;20045;-58
2021/04/24 02:42:28;;;;;;;21.52;9.73;;;0.80;99.90;;;;;;5053603;28;20115;-62
2021/04/24 02:44:56;;;;;;;18.17;9.63;;;0.70;99.90;;;;;;5058430;28;20055;-60
2021/04/24 02:47:23;;;;;;;22.85;10.02;;;0.70;99.90;;;;;;5067292;28;20063;-57
2021/04/24 02:49:49;;;;;;;26.55;9.32;;;0.70;99.90;;;;;;5054609;28;20045;-65
2021/04/24 02:52:15;;;;;;;24.85;9.70;;;0.70;99.90;;;;;;5046782;28;20051;-56
2021/04/24 02:54:41;;;;;;;24.50;10.00;;;0.70;99.90;;;;;;5047129;28;20056;-55
2021/04/24 02:57:06;;;;;;;21.92;9.48;;;0.70;99.90;;;;;;5035692;28;20037;-60
2021/04/24 02:59:33;;;;;;;21.20;9.55;;;0.70;99.90;;;;;;5026884;28;20042;-62
2021/04/24 03:01:59;;;;;;;22.98;9.85;;;0.70;99.90;;;;;;5026375;28;20057;-62
2021/04/24 03:04:25;;;;;;;27.13;11.52;;;0.60;99.90;;;;;;5027096;28;20612;-60
2021/04/24 03:06:51;;;;;;;25.17;8.88;;;0.60;99.90;;;;;;5027108;28;20063;-62
2021/04/24 03:09:17;;;;;;;26.63;9.73;;;0.50;99.90;;;;;;5027001;28;20033;-61
2021/04/24 03:11:43;;;;;;;29.20;10.75;;;0.50;99.90;;;;;;5033801;28;20068;-56
2021/04/24 03:14:09;;;;;;;31.40;10.50;;;0.50;99.90;;;;;;5058447;28;20044;-63
2021/04/24 03:16:37;;;;;;;30.00;10.25;;;0.50;99.90;;;;;;5066520;28;20504;-63
2021/04/24 03:19:03;;;;;;;24.80;9.73;;;0.50;99.90;;;;;;5066860;28;20151;-59
2021/04/24 03:21:29;;;;;;;18.20;8.77;;;0.50;99.90;;;;;;5067054;28;20040;-59
2021/04/24 03:23:55;;;;;;;27.55;9.88;;;0.50;99.90;;;;;;5066868;28;20044;-57
2021/04/24 03:26:22;;;;;;;23.30;9.85;;;0.40;99.90;;;;;;5062051;28;20037;-61
2021/04/24 03:28:48;;;;;;;25.75;10.20;;;0.40;99.90;;;;;;5046509;28;20658;-57
2021/04/24 03:31:14;;;;;;;20.88;9.70;;;0.40;99.90;;;;;;5045821;28;20037;-60
2021/04/24 03:33:40;;;;;;;23.08;9.73;;;0.40;99.90;;;;;;5046588;28;20094;-61
2021/04/24 03:36:07;;;;;;;22.58;9.45;;;0.50;99.90;;;;;;5046732;28;20041;-63
2021/04/24 03:38:33;;;;;;;19.05;9.80;;;0.50;99.90;;;;;;5046793;28;20049;-64
2021/04/24 03:40:59;;;;;;;24.80;10.00;;;0.40;99.90;;;;;;5048585;28;20037;-64
2021/04/24 03:43:25;;;;;;;26.05;9.60;;;0.40;99.90;;;;;;5058411;28;20102;-64
2021/04/24 03:45:50;;;;;;;23.20;9.63;;;0.40;99.90;;;;;;5068894;28;20036;-64
2021/04/24 03:48:16;;;;;;;27.73;10.00;;;0.30;99.90;;;;;;5070633;28;20044;-64
2021/04/24 03:50:41;;;;;;;22.88;8.98;;;0.30;99.90;;;;;;5071280;28;20032;-64
2021/04/24 03:53:07;;;;;;;21.88;8.57;;;0.30;99.90;;;;;;5070426;28;20040;-64
2021/04/24 03:55:33;;;;;;;22.83;10.05;;;0.30;99.90;;;;;;5052404;28;20052;-64
2021/04/24 03:58:00;;;;;;;21.10;9.55;;;0.30;99.90;;;;;;5050992;28;20037;-64
2021/04/24 04:00:28;;;;;;;20.67;10.13;;;0.30;99.90;;;;;;5049723;28;20089;-64
2021/04/24 04:02:59;;;;;;;26.52;10.55;;;0.30;99.90;;;;;;5050992;28;20041;-65
2021/04/24 04:05:27;;;;;;;20.40;9.57;;;0.20;99.90;;;;;;5049987;28;20047;-65
2021/04/24 04:07:53;;;;;;;23.33;9.85;;;0.30;99.90;;;;;;5049391;28;20048;-64
2021/04/24 04:10:19;;;;;;;21.67;9.52;;;0.20;99.90;;;;;;5050760;28;20699;-64
2021/04/24 04:12:46;;;;;;;20.33;9.18;;;0.20;99.90;;;;;;5058301;28;20068;-62
2021/04/24 04:15:13;;;;;;;20.13;9.40;;;0.20;99.90;;;;;;5062802;28;20528;-64
2021/04/24 04:17:39;;;;;;;20.60;9.45;;;0.20;99.90;;;;;;5069641;28;20040;-63
2021/04/24 04:20:10;;;;;;;20.27;10.15;;;0.20;99.90;;;;;;5071184;28;20071;-64
2021/04/24 04:22:36;;;;;;;18.83;8.57;;;0.20;99.90;;;;;;5048525;28;20037;-65
2021/04/24 04:25:04;;;;;;;17.88;8.80;;;0.20;99.90;;;;;;5048375;28;20084;-63
2021/04/24 04:27:30;;;;;;;21.00;8.93;;;0.20;99.90;;;;;;5049561;28;20041;-65
2021/04/24 04:29:55;;;;;;;20.20;8.63;;;0.30;99.90;;;;;;5031298;28;20060;-64
2021/04/24 04:32:21;;;;;;;19.23;9.10;;;0.40;99.90;;;;;;5049416;28;20429;-65
2021/04/24 04:34:47;;;;;;;19.33;8.98;;;0.40;99.90;;;;;;5049342;28;20056;-63
2021/04/24 04:37:13;;;;;;;17.05;8.70;;;0.40;99.90;;;;;;5049545;28;20055;-62
2021/04/24 04:39:39;;;;;;;28.58;9.52;;;0.40;99.90;;;;;;5049515;28;20080;-63
2021/04/24 04:42:06;;;;;;;18.90;8.23;;;0.60;99.90;;;;;;5053564;28;20112;-62
2021/04/24 04:44:31;;;;;;;16.38;7.75;;;0.70;99.90;;;;;;5061106;28;20081;-63
2021/04/24 04:46:57;;;;;;;22.83;8.73;;;0.90;99.90;;;;;;5069057;28;20033;-62
2021/04/24 04:49:22;;;;;;;18.60;7.43;;;1.10;99.90;;;;;;5068755;28;20121;-65
2021/04/24 04:51:48;;;;;;;22.95;7.82;;;1.10;99.90;;;;;;5069250;28;20503;-62
2021/04/24 04:54:14;;;;;;;22.48;8.10;;;1.30;99.90;;;;;;5068984;28;20291;-64
2021/04/24 04:56:40;;;;;;;22.00;8.30;;;1.40;99.90;;;;;;5060935;28;20037;-64
2021/04/24 04:59:05;;;;;;;18.13;7.28;;;1.60;99.90;;;;;;5048769;28;20053;-62
2021/04/24 05:01:31;;;;;;;19.63;8.00;;;1.60;99.90;;;;;;5047482;28;20040;-61
2021/04/24 05:03:56;;;;;;;26.85;8.50;;;1.80;99.90;;;;;;5048764;28;20470;-64
2021/04/24 05:06:22;;;;;;;15.43;7.78;;;2.40;99.90;;;;;;5030287;28;20521;-62
2021/04/24 05:08:48;;;;;;;;;;;3.10;99.90;;;;;;5031478;28;20124;-63
2021/04/24 05:11:13;;;;;;;14.00;7.00;;;3.50;99.90;;;;;;5048591;28;19927;-58
2021/04/24 05:13:39;;;;;;;;;;;3.90;99.90;;;;;;5058445;28;20823;-63
2021/04/24 05:16:04;;;;;;;15.27;6.88;;;3.90;99.10;;;;;;5068058;28;19978;-64
2021/04/24 05:18:30;;;;;;;;;;;3.80;99.90;;;;;;5067974;28;20040;-62
2021/04/24 05:20:55;;;;;;;17.83;6.65;;;4.20;99.60;;;;;;5068826;28;19916;-60
2021/04/24 05:23:21;;;;;;;;;;;4.10;98.40;;;;;;5068980;28;20436;-62
2021/04/24 05:25:47;;;;;;;19.08;6.45;;;4.40;99.20;;;;;;5068832;28;19922;-62
2021/04/24 05:28:13;;;;;;;;;;;4.90;98.00;;;;;;5048653;28;20041;-63
2021/04/24 05:30:39;;;;;;;21.85;7.88;;;5.50;96.80;;;;;;5048000;28;19924;-63
2021/04/24 05:33:04;;;;;;;;;;;6.30;96.00;;;;;;5048445;28;20025;-62
2021/04/24 05:35:30;;;;;;;17.20;7.20;;;6.70;95.00;;;;;;5040544;28;19924;-63
2021/04/24 05:37:55;;;;;;;;;;;7.00;93.00;;;;;;5049313;28;20584;-61
2021/04/24 05:40:21;;;;;;;16.48;7.03;;;7.10;92.90;;;;;;5039231;28;20467;-61
2021/04/24 05:42:46;;;;;;;;;;;7.10;92.20;;;;;;5042478;28;20695;-60
2021/04/24 05:45:14;;;;;;;14.60;6.85;;;7.10;92.40;;;;;;5039834;28;19931;-60
2021/04/24 05:47:41;;;;;;;18.45;7.18;;;7.40;92.40;;;;;;5037092;28;20085;-60
2021/04/24 05:50:09;;;;;;;13.85;6.32;;;7.50;92.60;;;;;;5038132;28;20521;-61
2021/04/24 05:52:35;;;;;;;12.85;6.80;;;7.30;92.10;;;;;;5036335;28;20037;-61
2021/04/24 05:55:04;;;;;;;13.73;7.07;;;7.00;93.00;;;;;;5036519;28;20098;-60
2021/04/24 05:57:31;;;;;;;17.60;6.40;;;6.70;93.60;;;;;;5036409;28;20160;-61
2021/04/24 05:59:57;;;;;;;13.90;6.45;;;6.90;93.40;;;;;;5035560;28;20439;-60
2021/04/24 06:02:22;;;;;;;;;;;6.70;93.80;;;;;;5035954;28;20037;-60
2021/04/24 06:04:48;;;;;;;14.27;5.00;;;6.50;94.40;;;;;;5036626;28;19921;-59
2021/04/24 06:07:14;;;;;;;;;;;6.60;95.10;;;;;;5040266;28;20040;-61
2021/04/24 06:09:40;;;;;;;15.20;6.15;;;6.60;95.30;;;;;;5036848;28;19924;-61
2021/04/24 06:12:06;;;;;;;;;;;6.40;94.70;;;;;;5047316;28;20808;-62
2021/04/24 06:14:31;;;;;;;16.48;6.95;;;6.10;95.90;;;;;;5059390;28;19920;-61
2021/04/24 06:16:58;;;;;;;;;;;5.60;96.90;;;;;;5050264;28;20067;-65
2021/04/24 06:19:24;;;;;;;15.57;6.72;;;5.50;98.00;;;;;;5068433;28;19924;-60
2021/04/24 06:21:50;;;;;;;;;;;5.20;98.30;;;;;;5068347;28;20075;-64
2021/04/24 06:24:15;;;;;;;21.77;7.20;;;5.30;99.40;;;;;;5061045;28;19991;-63
2021/04/24 06:26:41;;;;;;;;;;;6.20;97.80;;;;;;5047990;28;20455;-64
2021/04/24 06:29:07;;;;;;;14.52;6.60;;;7.20;96.30;;;;;;5045823;28;19925;-64
2021/04/24 06:31:32;;;;;;;;;;;8.40;93.80;;;;;;5046794;28;20041;-64
2021/04/24 06:33:58;;;;;;;13.43;5.72;;;8.60;92.20;;;;;;5048215;28;19995;-63
2021/04/24 06:36:23;;;;;;;;;;;9.00;92.00;;;;;;5048135;28;20052;-63
2021/04/24 06:38:49;;;;;;;19.42;6.10;;;8.10;92.00;;;;;;5047844;28;20442;-64
2021/04/24 06:41:14;;;;;;;;;;;8.10;93.40;;;;;;5046033;28;20126;-63
2021/04/24 06:43:40;;;;;;;10.80;5.55;;;7.80;93.20;;;;;;5046041;28;19931;-64
2021/04/24 06:46:05;;;;;;;;;;;8.00;93.90;;;;;;5046153;28;20401;-61
2021/04/24 06:48:31;;;;;;;12.25;5.35;;;7.60;93.10;;;;;;5046377;28;19944;-60
2021/04/24 06:50:58;;;;;;;;;;;7.00;95.40;;;;;;5047673;28;20144;-62
2021/04/24 06:53:26;;;;;;;7.95;4.78;;;6.70;95.60;;;;;;5047067;28;19931;-61
2021/04/24 06:55:52;;;;;;;14.25;5.35;;;7.30;95.70;;;;;;5047602;28;20049;-61
2021/04/24 06:58:19;;;;;;;11.98;5.07;;;7.10;94.40;;;;;;5047083;28;20041;-62
2021/04/24 07:00:44;;;;;;;8.63;4.57;;;6.90;95.30;;;;;;5029149;28;20572;-61
2021/04/24 07:03:09;;;;;;;;;;;7.30;95.00;;;;;;5047648;28;20040;-60
2021/04/24 07:05:35;;;;;;;11.13;4.60;;;7.30;95.70;;;;;;5046802;28;19921;-61
2021/04/24 07:08:01;;;;;;;;;;;7.30;93.80;;;;;;5012818;28;20523;-61
2021/04/24 07:10:26;;;;;;;9.57;4.30;;;7.20;94.40;;;;;;5027243;28;19921;-61
2021/04/24 07:12:52;;;;;;;;;;;6.70;94.00;;;;;;5051879;28;20408;-61
2021/04/24 07:15:17;;;;;;;14.65;4.65;;;6.30;95.10;;;;;;5042565;28;19924;-61
2021/04/24 07:17:43;;;;;;;;;;;5.80;96.10;;;;;;5067839;28;20029;-61
2021/04/24 07:20:10;;;;;;;6.78;4.03;;;5.70;97.20;;;;;;5067533;28;20003;-61
2021/04/24 07:22:37;;;;;;;7.22;3.83;;;5.70;96.90;;;;;;5066929;28;20049;-62
2021/04/24 07:25:03;;;;;;;8.57;4.22;;;5.60;96.40;;;;;;5066928;28;20136;-61
2021/04/24 07:27:29;;;;;;;11.10;4.60;;;5.30;97.00;;;;;;5053251;28;20521;-60
2021/04/24 07:29:54;;;;;;;;;;;5.50;96.80;;;;;;5047347;28;20128;-62
2021/04/24 07:32:20;;;;;;;9.27;4.70;;;5.20;96.60;;;;;;5046678;28;19917;-62
2021/04/24 07:34:46;;;;;;;7.60;3.67;;;5.00;97.30;;;;;;5047338;28;20124;-62
2021/04/24 07:37:11;;;;;;;;;;;5.10;97.70;;;;;;5047407;28;20577;-61
2021/04/24 07:39:37;;;;;;;4.72;3.20;;;4.90;97.70;;;;;;5047207;28;20461;-61
2021/04/24 07:42:03;;;;;;;;;;;4.70;97.10;;;;;;5051761;28;20087;-60
2021/04/24 07:44:28;;;;;;;10.77;3.50;;;4.80;98.10;;;;;;5058911;28;19927;-61
2021/04/24 07:46:54;;;;;;;;;;;4.80;97.60;;;;;;5066748;28;20040;-61
2021/04/24 07:49:20;;;;;;;7.30;4.30;;;4.70;97.60;;;;;;5067457;28;19969;-62
2021/04/24 07:51:46;;;;;;;9.02;4.30;;;4.60;98.10;;;;;;5066912;28;20524;-62
2021/04/24 07:54:14;;;;;;;7.55;3.80;;;4.80;98.30;;;;;;5067758;28;20071;-62
2021/04/24 07:56:41;;;;;;;6.25;3.15;;;4.80;98.90;;;;;;5059216;28;20508;-60
2021/04/24 07:59:07;;;;;;;10.10;3.53;;;5.00;97.60;;;;;;5047545;28;20051;-62
2021/04/24 08:01:32;;;;;;;;;;;5.30;98.30;;;;;;5046979;28;20451;-60
2021/04/24 08:03:58;;;;;;;6.93;2.80;;;5.40;96.80;;;;;;5047337;28;19990;-53
2021/04/24 08:06:23;;;;;;;;;;;6.70;95.30;;;;;;5047214;28;20045;-54
2021/04/24 08:08:50;;;;;;;5.45;2.72;;;7.10;93.40;;;;;;5046857;28;19975;-58
2021/04/24 08:11:17;;;;;;;5.45;2.63;;;7.60;92.30;;;;;;5047133;28;20133;-56
2021/04/24 08:13:42;;;;;;;4.55;2.80;;;7.10;93.50;;;;;;5056760;28;20048;-59
2021/04/24 08:16:07;;;;;;;;;;;8.30;92.40;;;;;;5066483;28;20040;-60
2021/04/24 08:18:33;;;;;;;6.78;2.90;;;9.10;86.80;;;;;;5046751;28;19924;-57
2021/04/24 08:20:59;;;;;;;;;;;9.90;84.30;;;;;;5046727;28;20033;-58
2021/04/24 08:23:24;;;;;;;10.68;3.25;;;10.80;81.00;;;;;;5046737;28;19924;-59
2021/04/24 08:25:50;;;;;;;;;;;10.60;79.20;;;;;;5046618;28;20048;-60
2021/04/24 08:28:15;;;;;;;9.00;3.88;;;10.70;76.20;;;;;;5048127;28;20439;-60
2021/04/24 08:30:41;;;;;;;;;;;10.70;76.60;;;;;;5049805;28;20044;-57
2021/04/24 08:33:08;;;;;;;9.57;3.97;;;10.40;76.80;;;;;;5049421;28;20553;-57
2021/04/24 08:35:33;;;;;;;7.10;3.33;;;10.90;78.30;;;;;;5049510;28;20045;-56
2021/04/24 08:37:59;;;;;;;;;;;10.50;76.60;;;;;;5047951;28;20029;-59
2021/04/24 08:40:25;;;;;;;7.32;3.42;;;10.20;79.00;;;;;;5045516;28;19917;-57
2021/04/24 08:42:51;;;;;;;;;;;9.70;80.40;;;;;;5058328;28;20625;-60
2021/04/24 08:45:18;;;;;;;7.30;3.00;;;9.80;83.60;;;;;;5062950;28;20296;-61
2021/04/24 08:47:49;;;;;;;7.07;3.45;;;9.60;83.50;;;;;;5070334;28;20044;-59
2021/04/24 08:50:17;;;;;;;5.38;2.95;;;9.50;84.40;;;;;;5069823;28;20041;-61
2021/04/24 08:52:43;;;;;;;5.40;3.15;;;9.20;81.50;;;;;;5069626;28;20041;-60
2021/04/24 08:55:10;;;;;;;;;;;8.70;83.00;;;;;;5069982;28;20051;-61
2021/04/24 08:57:37;;;;;;;13.98;4.13;;;8.50;85.70;;;;;;5053608;28;20675;-60
2021/04/24 09:00:07;;;;;;;7.78;3.95;;;8.40;85.50;;;;;;5049716;28;20041;-60
2021/04/24 09:02:33;;;;;;;6.45;3.58;;;8.30;87.50;;;;;;5046858;28;20052;-60
2021/04/24 09:04:58;;;;;;;;;;;8.10;86.00;;;;;;5050235;28;20053;-60
2021/04/24 09:07:25;;;;;;;9.23;4.68;;;8.00;88.90;;;;;;5049453;28;19921;-61
2021/04/24 09:09:58;;;;;;;10.50;4.32;;;7.90;88.90;;;;;;5049452;28;20430;-61
2021/04/24 09:12:40;;;;;;;10.60;4.18;;;7.40;89.60;;;;;;5056388;28;20059;-59
2021/04/24 09:15:29;;;;;;;8.13;4.35;;;7.50;90.40;;;;;;5054859;28;20044;-60
2021/04/24 09:18:02;;;;;;;7.15;3.90;;;7.10;90.50;;;;;;5069343;28;20052;-61
2021/04/24 09:20:33;;;;;;;10.20;4.47;;;7.20;90.60;;;;;;5069692;28;20040;-62
2021/04/24 09:23:00;;;;;;;5.72;3.90;;;7.40;92.30;;;;;;5068897;28;20119;-61
2021/04/24 09:25:35;;;;;;;10.07;5.10;;;7.60;90.60;;;;;;5068869;28;20167;-61
2021/04/24 09:28:01;;;;;;;9.63;5.03;;;7.70;92.10;;;;;;5050793;28;20124;-58
2021/04/24 09:30:30;;;;;;;9.18;5.05;;;7.90;92.20;;;;;;5048490;28;20138;-62
2021/04/24 09:33:03;;;;;;;10.15;4.45;;;8.00;92.00;;;;;;5048998;28;20041;-62
2021/04/24 09:35:44;;;;;;;9.98;5.00;;;8.00;91.00;;;;;;5049024;28;20055;-58
2021/04/24 09:38:16;;;;;;;9.32;4.85;;;8.00;90.10;;;;;;5049117;28;20041;-59
2021/04/24 09:40:42;;;;;;;12.07;5.18;;;8.10;90.50;;;;;;5048152;28;20043;-57
2021/04/24 09:43:08;;;;;;;;;;;8.10;89.90;;;;;;5057379;28;20115;-61
2021/04/24 09:45:40;;;;;;;11.00;4.43;;;7.90;89.50;;;;;;5065273;28;19969;-61
2021/04/24 09:48:21;;;;;;;9.15;4.70;;;7.70;90.40;;;;;;5068849;28;20102;-61
2021/04/24 09:50:47;;;;;;;13.40;5.75;;;8.10;90.70;;;;;;5068991;28;20048;-56
2021/04/24 09:53:22;;;;;;;17.67;5.40;;;8.50;91.20;;;;;;5067813;28;20041;-57
2021/04/24 09:55:50;;;;;;;17.48;4.85;;;8.60;89.20;;;;;;5053814;28;20052;-55
2021/04/24 09:58:28;;;;;;;10.52;4.93;;;8.50;90.10;;;;;;5028444;28;20053;-56
2021/04/24 10:00:56;;;;;;;15.20;5.20;;;8.30;87.90;;;;;;5028143;28;20631;-60
2021/04/24 10:03:38;;;;;;;9.43;5.13;;;8.40;88.80;;;;;;5028573;28;20128;-57
2021/04/24 10:06:27;;;;;;;7.32;4.22;;;8.60;90.50;;;;;;5041009;28;20140;-57
2021/04/24 10:09:17;;;;;;;10.52;5.45;;;8.70;90.10;;;;;;5048366;28;20450;-56
2021/04/24 10:12:05;;;;;;;10.38;4.97;;;8.20;90.30;;;;;;5039660;28;20485;-59
2021/04/24 10:14:46;;;;;;;13.63;4.95;;;8.30;91.50;;;;;;5059570;28;20846;-61
2021/04/24 10:17:13;;;;;;;7.70;4.53;;;8.50;90.00;;;;;;5067233;28;20044;-61
2021/04/24 10:19:39;;;;;;;12.57;4.15;;;8.60;88.70;;;;;;5059763;28;20041;-58
2021/04/24 10:22:07;;;;;;;8.60;3.83;;;8.80;90.30;;;;;;5047936;28;20052;-61
2021/04/24 10:24:33;;;;;;;6.68;3.85;;;8.90;87.30;;;;;;5047593;28;20162;-61
2021/04/24 10:26:59;;;;;;;9.30;4.50;;;9.00;85.80;;;;;;5048177;28;20576;-62
2021/04/24 10:29:24;;;;;;;;;;;9.30;88.30;;;;;;5048088;28;20090;-61
2021/04/24 10:31:51;;;;;;;13.30;5.50;;;9.10;88.90;;;;;;5047527;28;19916;-61
2021/04/24 10:34:17;;;;;;;8.18;4.90;;;9.30;88.70;;;;;;5046363;28;20457;-59
2021/04/24 10:36:43;;;;;;;;;;;9.20;90.60;;;;;;5045659;28;20128;-61
2021/04/24 10:39:12;;;;;;;12.60;4.57;;;9.20;88.20;;;;;;5047906;28;19959;-61
2021/04/24 10:41:41;;;;;;;10.40;4.45;;;9.00;87.50;;;;;;5047720;28;20041;-60
2021/04/24 10:44:14;;;;;;;8.10;4.05;;;9.10;88.40;;;;;;5059267;28;20048;-60
2021/04/24 10:46:48;;;;;;;9.40;4.05;;;9.40;87.80;;;;;;5066727;28;20041;-61
2021/04/24 10:49:21;;;;;;;9.05;4.00;;;9.30;87.10;;;;;;5067600;28;20472;-62
2021/04/24 10:51:57;;;;;;;8.38;4.15;;;9.50;88.10;;;;;;5066945;28;20045;-61
2021/04/24 10:54:24;;;;;;;7.95;3.67;;;9.50;88.10;;;;;;5067618;28;20053;-60
2021/04/24 10:56:50;;;;;;;9.30;3.95;;;9.70;83.60;;;;;;5058254;28;20504;-60
2021/04/24 10:59:19;;;;;;;;;;;9.80;84.70;;;;;;5047535;28;20071;-60
2021/04/24 11:02:12;;;;;;;8.68;4.45;;;9.60;88.60;;;;;;5045482;28;19920;-61
2021/04/24 11:04:49;;;;;;;7.38;3.78;;;9.70;85.80;;;;;;5054962;28;20127;-61
2021/04/24 11:07:19;;;;;;;6.95;4.13;;;9.80;88.50;;;;;;5052747;28;20044;-60
2021/04/24 11:10:11;;;;;;;8.98;4.22;;;10.00;85.70;;;;;;5046884;28;20126;-61
2021/04/24 11:12:46;;;;;;;9.23;4.63;;;10.00;84.80;;;;;;5055129;28;20117;-61
2021/04/24 11:15:15;;;;;;;7.05;3.95;;;9.90;82.90;;;;;;5060048;28;20048;-63
2021/04/24 11:17:41;;;;;;;7.90;4.97;;;10.10;85.10;;;;;;5067021;28;20048;-61
2021/04/24 11:20:08;;;;;;;;;;;10.00;87.10;;;;;;5067587;28;20116;-60
2021/04/24 11:22:43;;;;;;;11.95;5.65;;;10.10;83.70;;;;;;5066942;28;19978;-61
2021/04/24 11:25:18;;;;;;;7.43;4.13;;;9.80;82.00;;;;;;5067254;28;20053;-62
2021/04/24 11:28:13;;;;;;;7.68;4.00;;;9.80;86.90;;;;;;5067805;28;20044;-62
2021/04/24 11:30:56;;;;;;;7.38;3.88;;;9.90;85.50;;;;;;5065943;28;20124;-62
2021/04/24 11:33:43;;;;;;;9.32;4.50;;;10.10;86.00;;;;;;5067397;28;20589;-61
2021/04/24 11:36:15;;;;;;;9.13;4.22;;;10.30;84.20;;;;;;5067440;28;20036;-62
2021/04/24 11:39:00;;;;;;;10.23;4.40;;;10.30;83.70;;;;;;5066619;28;20054;-59
2021/04/24 11:41:43;;;;;;;10.55;4.72;;;10.30;83.10;;;;;;5063710;28;20037;-60
2021/04/24 11:44:18;;;;;;;8.48;4.15;;;10.40;84.20;;;;;;5046707;28;20425;-62
2021/04/24 11:46:49;;;;;;;7.65;4.78;;;10.30;82.60;;;;;;5045160;28;20052;-60
2021/04/24 11:49:17;;;;;;;7.80;4.72;;;10.20;82.40;;;;;;5046994;28;20102;-62
2021/04/24 11:52:07;;;;;;;13.70;6.03;;;10.00;86.90;;;;;;5046938;28;20040;-62
2021/04/24 11:54:41;;;;;;;13.70;5.10;;;10.00;83.30;;;;;;5047288;28;20119;-61
2021/04/24 11:57:17;;;;;;;11.15;5.30;;;9.90;83.50;;;;;;5046939;28;20103;-61
2021/04/24 11:59:44;;;;;;;11.27;5.00;;;9.90;85.40;;;;;;5046081;28;20048;-61
2021/04/24 12:02:46;;;;;;;10.70;4.90;;;10.10;86.10;;;;;;5046288;28;20040;-60
2021/04/24 12:05:12;;;;;;;10.50;4.40;;;10.40;86.60;;;;;;5007902;28;20114;-61
2021/04/24 12:07:43;;;;;;;9.68;4.85;;;10.30;82.60;;;;;;5050225;28;20048;-61
2021/04/24 12:10:11;;;;;;;10.77;4.60;;;10.00;82.60;;;;;;5050694;28;20049;-61
2021/04/24 12:12:45;;;;;;;9.18;5.03;;;10.20;82.30;;;;;;5058696;28;20044;-61
2021/04/24 12:15:25;;;;;;;8.00;5.05;;;10.30;83.60;;;;;;5063402;28;20044;-61
2021/04/24 12:17:57;;;;;;;11.23;4.75;;;10.40;84.10;;;;;;5070527;28;20408;-61
2021/04/24 12:20:24;;;;;;;10.40;4.90;;;10.30;83.20;;;;;;5070326;28;20047;-62
2021/04/24 12:22:50;;;;;;;9.60;4.88;;;10.30;82.40;;;;;;5070220;28;20049;-61
2021/04/24 12:25:18;;;;;;;12.50;4.68;;;10.10;80.80;;;;;;5069587;28;20127;-60
2021/04/24 12:27:49;;;;;;;9.52;5.32;;;10.00;80.50;;;;;;5044986;28;20053;-56
2021/04/24 12:30:18;;;;;;;9.68;4.18;;;9.90;82.70;;;;;;5049422;28;20128;-57
2021/04/24 12:32:49;;;;;;;11.50;4.65;;;10.00;87.10;;;;;;5049423;28;20045;-61
2021/04/24 12:35:24;;;;;;;10.07;4.90;;;10.10;82.90;;;;;;5050183;28;20463;-60
2021/04/24 12:38:02;;;;;;;13.30;5.60;;;10.10;80.40;;;;;;5050601;28;20037;-58
2021/04/24 12:40:29;;;;;;;11.40;5.75;;;10.20;82.80;;;;;;5050199;28;20220;-56
2021/04/24 12:43:22;;;;;;;14.05;5.65;;;10.10;82.80;;;;;;5044341;28;20056;-59
2021/04/24 12:45:49;;;;;;;9.15;4.10;;;10.00;81.70;;;;;;5047449;28;20063;-58
2021/04/24 12:48:23;;;;;;;6.90;3.70;;;10.10;80.90;;;;;;5050361;28;20052;-59
2021/04/24 12:50:52;;;;;;;15.73;5.18;;;10.10;77.70;;;;;;5049790;28;20421;-59
2021/04/24 12:53:38;;;;;;;10.40;4.57;;;9.90;79.20;;;;;;5050057;28;20041;-62
2021/04/24 12:56:09;;;;;;;11.65;4.47;;;9.90;81.20;;;;;;5049684;28;20106;-60
2021/04/24 12:58:38;;;;;;;14.52;5.38;;;9.90;81.20;;;;;;5049837;28;20536;-61
2021/04/24 13:01:23;;;;;;;11.30;5.80;;;10.00;81.70;;;;;;5049394;28;20033;-61
2021/04/24 13:03:58;;;;;;;9.90;4.35;;;10.10;82.10;;;;;;5049610;28;20033;-59